Time;durP1;ratioP1;P1;durP2;ratioP2;P2;SDS_P1;SDS_P2;PMS_P1;PMS_P2;Temp;Humidity;BMP_temperature;BMP_pressure;BME280_temperature;BME280_humidity;BME280_pressure;Samples;Min_cycle;Max_cycle;Signal;HPM_P1;HPM_P2
2022/06/13 00:01:19;;;;;;;3.80;1.60;;;23.30;1.00;;;;;;5071543;28;20973;-81
2022/06/13 00:03:48;;;;;;;1.67;1.10;;;23.20;1.00;;;;;;5062426;28;20470;-82
2022/06/13 00:06:17;;;;;;;2.00;1.40;;;23.20;1.00;;;;;;5063709;28;20455;-81
2022/06/13 00:08:46;;;;;;;1.47;1.17;;;23.30;1.00;;;;;;5071635;28;20481;-82
2022/06/13 00:11:16;;;;;;;1.43;1.33;;;23.30;99.90;;;;;;5072097;28;20980;-82
2022/06/13 00:13:46;;;;;;;1.90;1.17;;;23.20;1.00;;;;;;5070304;28;20990;-82
2022/06/13 00:16:16;;;;;;;2.00;1.50;;;23.20;1.00;;;;;;5070089;28;20454;-82
2022/06/13 00:18:47;;;;;;;1.20;1.10;;;23.10;1.00;;;;;;5070862;28;20459;-82
2022/06/13 00:21:18;;;;;;;1.50;1.40;;;23.10;1.00;;;;;;5062300;28;20451;-82
2022/06/13 00:23:49;;;;;;;2.10;1.40;;;23.00;1.00;;;;;;5067130;28;20483;-81
2022/06/13 00:26:18;;;;;;;1.33;1.23;;;23.00;1.00;;;;;;5070005;28;20447;-82
2022/06/13 00:28:46;;;;;;;1.63;1.30;;;22.90;1.00;;;;;;5071238;28;20467;-81
2022/06/13 00:31:15;;;;;;;1.60;1.23;;;22.90;1.00;;;;;;5066370;28;20465;-82
2022/06/13 00:33:44;;;;;;;1.87;1.40;;;22.90;1.00;;;;;;5070385;28;20478;-82
2022/06/13 00:36:12;;;;;;;2.07;1.40;;;22.90;1.00;;;;;;5070444;28;20455;-82
2022/06/13 00:38:40;;;;;;;1.53;1.10;;;22.90;1.00;;;;;;5066169;28;20470;-81
2022/06/13 00:41:10;;;;;;;1.73;1.63;;;22.90;1.00;;;;;;5057100;28;20451;-82
2022/06/13 00:43:40;;;;;;;3.93;1.73;;;22.90;1.00;;;;;;5071162;28;20478;-82
2022/06/13 00:46:26;;;;;;;1.37;1.27;;;22.90;1.00;;;;;;5070310;28;20446;-82
2022/06/13 00:48:59;;;;;;;1.40;1.30;;;23.00;1.00;;;;;;5061137;28;20451;-82
2022/06/13 00:51:30;;;;;;;1.20;1.10;;;22.90;1.00;;;;;;5057683;28;20441;-82
2022/06/13 00:53:58;;;;;;;2.87;1.53;;;22.70;1.00;;;;;;5070884;28;20954;-82
2022/06/13 00:56:30;;;;;;;2.17;1.27;;;22.40;1.00;;;;;;5065059;28;20877;-82
2022/06/13 00:59:00;;;;;;;3.90;1.40;;;22.10;99.90;;;;;;5060934;28;20462;-81
2022/06/13 01:01:32;;;;;;;2.77;1.63;;;21.70;99.90;;;;;;5068070;28;20453;-81
2022/06/13 01:04:03;;;;;;;1.53;1.37;;;21.70;99.90;;;;;;5069720;28;20488;-81
2022/06/13 01:06:35;;;;;;;2.07;1.20;;;21.70;99.90;;;;;;5069546;28;20829;-82
2022/06/13 01:09:05;;;;;;;1.80;1.30;;;21.70;99.90;;;;;;5060614;28;20455;-81
2022/06/13 01:11:33;;;;;;;2.03;1.70;;;21.60;99.90;;;;;;5068992;28;20465;-81
2022/06/13 01:14:26;;;;;;;1.40;1.30;;;21.50;1.00;;;;;;5068468;28;20481;-81
2022/06/13 01:17:11;;;;;;;1.50;1.40;;;21.50;1.00;;;;;;5069711;28;20448;-81
2022/06/13 01:20:06;;;;;;;2.50;1.23;;;21.60;99.90;;;;;;5057324;28;21141;-82
2022/06/13 01:23:05;;;;;;;1.57;1.47;;;21.90;99.90;;;;;;5058990;28;20464;-81
2022/06/13 01:25:51;;;;;;;1.50;1.40;;;22.10;99.90;;;;;;5069051;28;20488;-82
2022/06/13 01:28:43;;;;;;;1.53;1.20;;;22.20;63.70;;;;;;5069546;28;20976;-81
2022/06/13 01:31:22;;;;;;;3.40;1.33;;;22.30;17.90;;;;;;5061597;28;20490;-82
2022/06/13 01:34:03;;;;;;;1.20;1.10;;;22.40;1.00;;;;;;5069676;28;20489;-81
2022/06/13 01:36:37;;;;;;;1.50;1.40;;;22.50;1.00;;;;;;5069305;28;20515;-82
2022/06/13 01:39:22;;;;;;;1.30;1.10;;;22.50;1.00;;;;;;5069012;28;20451;-81
2022/06/13 01:42:06;;;;;;;1.57;1.30;;;22.50;1.00;;;;;;5070160;28;20462;-81
2022/06/13 01:44:44;;;;;;;1.87;1.40;;;22.60;1.00;;;;;;5069546;28;20484;-82
2022/06/13 01:47:23;;;;;;;1.20;1.10;;;22.60;1.00;;;;;;5059273;28;20505;-81
2022/06/13 01:50:00;;;;;;;1.30;1.20;;;22.50;1.00;;;;;;5069489;28;20472;-81
2022/06/13 01:52:35;;;;;;;2.40;1.20;;;22.40;1.00;;;;;;5069639;28;20977;-82
2022/06/13 01:55:18;;;;;;;2.40;1.40;;;22.30;1.00;;;;;;5068798;28;20535;-81
2022/06/13 01:57:52;;;;;;;1.30;1.20;;;22.40;1.00;;;;;;5062099;28;20973;-82
2022/06/13 02:00:26;;;;;;;2.27;1.40;;;22.40;1.00;;;;;;5069514;28;20472;-81
2022/06/13 02:03:01;;;;;;;1.50;1.30;;;22.40;1.00;;;;;;5068276;28;20451;-81
2022/06/13 02:05:33;;;;;;;1.47;1.30;;;22.30;1.00;;;;;;5049020;28;20489;-81
2022/06/13 02:08:08;;;;;;;1.40;1.30;;;22.40;1.00;;;;;;5069236;28;20457;-82
2022/06/13 02:10:51;;;;;;;1.20;1.10;;;22.40;1.00;;;;;;5069618;28;20485;-82
2022/06/13 02:13:27;;;;;;;1.40;1.30;;;22.40;1.00;;;;;;5069172;28;20446;-81
2022/06/13 02:15:58;;;;;;;1.40;1.30;;;22.40;1.00;;;;;;5056193;28;20496;-81
2022/06/13 02:18:33;;;;;;;1.53;1.40;;;22.50;1.00;;;;;;5068590;28;20454;-82
2022/06/13 02:21:09;;;;;;;1.53;1.20;;;22.50;1.00;;;;;;5064276;28;20454;-82
2022/06/13 02:23:43;;;;;;;1.70;1.60;;;22.60;1.00;;;;;;5069232;28;20465;-81
2022/06/13 02:26:14;;;;;;;2.67;1.50;;;22.50;1.00;;;;;;5055005;28;20457;-82
2022/06/13 02:28:47;;;;;;;3.07;1.50;;;22.50;1.00;;;;;;5068870;28;20439;-81
2022/06/13 02:31:19;;;;;;;1.50;1.17;;;22.50;1.00;;;;;;5068466;28;21092;-81
2022/06/13 02:33:57;;;;;;;1.40;1.30;;;22.50;1.00;;;;;;5068908;28;20477;-83
2022/06/13 02:36:33;;;;;;;3.17;1.30;;;22.40;1.00;;;;;;5068135;28;20444;-82
2022/06/13 02:39:06;;;;;;;2.07;1.40;;;22.40;1.00;;;;;;5067171;28;20446;-82
2022/06/13 02:41:40;;;;;;;2.77;1.20;;;22.40;1.00;;;;;;5067539;28;21274;-81
2022/06/13 02:44:13;;;;;;;3.70;1.50;;;22.50;1.00;;;;;;5068284;28;20506;-82
2022/06/13 02:46:46;;;;;;;2.53;1.33;;;22.50;1.00;;;;;;5080588;28;20873;-81
2022/06/13 02:49:22;;;;;;;5.80;2.00;;;22.50;1.00;;;;;;5067431;28;20464;-82
2022/06/13 02:52:02;;;;;;;1.30;1.20;;;22.50;1.00;;;;;;5090577;28;20466;-82
2022/06/13 02:54:35;;;;;;;1.50;1.40;;;22.50;1.00;;;;;;5063925;28;21020;-81
2022/06/13 02:57:24;;;;;;;1.57;1.47;;;22.50;1.00;;;;;;5060748;28;20451;-81
2022/06/13 03:00:18;;;;;;;1.80;1.47;;;22.50;1.00;;;;;;5055808;28;20484;-81
2022/06/13 03:02:56;;;;;;;2.57;1.30;;;22.50;1.00;;;;;;5068576;28;20508;-80
2022/06/13 03:05:49;;;;;;;1.47;1.37;;;22.40;1.00;;;;;;5060261;28;20485;-82
2022/06/13 03:08:24;;;;;;;1.40;1.30;;;22.40;1.00;;;;;;5065804;28;20511;-81
2022/06/13 03:11:01;;;;;;;1.20;1.10;;;22.40;1.00;;;;;;5068320;28;20489;-82
2022/06/13 03:13:36;;;;;;;1.30;1.20;;;22.30;99.90;;;;;;5054603;28;20440;-81
2022/06/13 03:16:09;;;;;;;3.73;1.30;;;22.30;99.90;;;;;;5053919;28;20453;-82
2022/06/13 03:18:45;;;;;;;1.40;1.10;;;22.30;99.90;;;;;;5066617;28;20444;-81
2022/06/13 03:21:20;;;;;;;2.40;1.40;;;22.30;99.90;;;;;;5067706;28;20442;-82
2022/06/13 03:23:55;;;;;;;2.60;1.13;;;22.20;99.90;;;;;;5067762;28;20470;-81
2022/06/13 03:26:29;;;;;;;1.63;1.27;;;22.20;99.90;;;;;;5067458;28;20449;-81
2022/06/13 03:29:04;;;;;;;1.40;1.30;;;22.10;99.90;;;;;;5055398;28;20446;-82
2022/06/13 03:31:36;;;;;;;2.53;1.37;;;22.10;99.90;;;;;;5069694;28;20556;-82
2022/06/13 03:34:13;;;;;;;1.77;1.23;;;22.00;99.90;;;;;;5070647;28;20489;-81
2022/06/13 03:36:46;;;;;;;3.03;1.30;;;22.00;99.90;;;;;;5065545;28;20450;-81
2022/06/13 03:39:19;;;;;;;3.77;1.57;;;21.90;99.90;;;;;;5070797;28;20473;-82
2022/06/13 03:41:52;;;;;;;3.27;1.70;;;21.90;99.90;;;;;;5071781;28;20469;-81
2022/06/13 03:44:25;;;;;;;2.90;1.57;;;21.80;99.90;;;;;;5071339;28;20482;-81
2022/06/13 03:46:57;;;;;;;3.10;1.73;;;21.80;99.90;;;;;;5065751;28;20518;-82
2022/06/13 03:49:32;;;;;;;1.40;1.30;;;21.80;99.90;;;;;;5071960;28;20963;-81
2022/06/13 03:52:03;;;;;;;3.03;1.37;;;21.80;99.90;;;;;;5070368;28;21045;-81
2022/06/13 03:54:38;;;;;;;3.00;1.40;;;21.80;99.90;;;;;;5068962;28;20467;-82
2022/06/13 03:57:13;;;;;;;4.67;1.50;;;21.70;99.90;;;;;;5065111;28;20461;-82
2022/06/13 03:59:46;;;;;;;2.37;1.30;;;21.70;99.90;;;;;;5071707;28;20458;-81
2022/06/13 04:02:17;;;;;;;2.30;1.70;;;21.70;99.90;;;;;;5068201;28;21135;-81
2022/06/13 04:04:47;;;;;;;1.93;1.23;;;21.70;99.90;;;;;;5062553;28;20850;-81
2022/06/13 04:07:19;;;;;;;2.27;1.30;;;21.60;99.90;;;;;;5061335;28;20456;-82
2022/06/13 04:09:50;;;;;;;4.57;1.80;;;21.60;99.90;;;;;;5071196;28;20460;-82
2022/06/13 04:12:30;;;;;;;3.60;1.30;;;21.60;99.90;;;;;;5071380;28;20486;-81
2022/06/13 04:15:16;;;;;;;2.07;1.20;;;21.50;99.90;;;;;;5067249;28;20474;-81
2022/06/13 04:17:55;;;;;;;1.30;1.20;;;21.50;99.90;;;;;;5057646;28;20492;-81
2022/06/13 04:20:30;;;;;;;4.30;1.40;;;21.50;99.90;;;;;;5058772;28;20899;-81
2022/06/13 04:23:12;;;;;;;5.07;1.50;;;21.40;99.90;;;;;;5069990;28;20460;-81
2022/06/13 04:25:48;;;;;;;2.20;1.50;;;21.10;99.90;;;;;;5070162;28;20467;-81
2022/06/13 04:28:28;;;;;;;2.67;1.30;;;21.40;99.90;;;;;;5068217;28;20483;-82
2022/06/13 04:31:00;;;;;;;3.60;1.97;;;21.50;99.90;;;;;;5070834;28;20541;-81
2022/06/13 04:33:33;;;;;;;3.33;1.53;;;21.40;99.90;;;;;;5070933;28;20508;-81
2022/06/13 04:36:03;;;;;;;3.00;1.27;;;21.40;99.90;;;;;;5068941;28;20469;-81
2022/06/13 04:38:34;;;;;;;1.93;1.27;;;21.40;99.90;;;;;;5058770;28;20455;-81
2022/06/13 04:41:05;;;;;;;4.57;1.80;;;21.30;99.90;;;;;;5070587;28;21248;-81
2022/06/13 04:43:37;;;;;;;3.37;1.63;;;21.30;99.90;;;;;;5070353;28;20466;-81
2022/06/13 04:46:09;;;;;;;2.27;1.40;;;21.30;99.90;;;;;;5068649;28;21114;-81
2022/06/13 04:48:39;;;;;;;2.50;1.37;;;21.30;99.90;;;;;;5060379;28;20458;-81
2022/06/13 04:51:11;;;;;;;1.40;1.30;;;21.30;99.90;;;;;;5070700;28;20471;-82
2022/06/13 04:53:53;;;;;;;4.90;2.00;;;21.20;99.90;;;;;;5058227;28;20470;-81
2022/06/13 04:56:22;;;;;;;2.20;1.20;;;21.20;99.90;;;;;;5068225;28;21070;-81
2022/06/13 04:58:53;;;;;;;3.10;1.60;;;21.20;99.90;;;;;;5062951;28;20485;-81
2022/06/13 05:01:31;;;;;;;2.10;1.10;;;21.10;99.90;;;;;;5065812;28;20469;-81
2022/06/13 05:04:02;;;;;;;4.50;1.23;;;21.10;99.90;;;;;;5070304;28;20482;-82
2022/06/13 05:06:34;;;;;;;3.40;1.37;;;21.00;99.90;;;;;;5068367;28;20446;-81
2022/06/13 05:09:17;;;;;;;3.97;1.60;;;21.10;99.90;;;;;;5060921;28;20498;-82
2022/06/13 05:11:49;;;;;;;3.83;1.40;;;21.10;99.90;;;;;;5069169;28;20488;-81
2022/06/13 05:14:25;;;;;;;4.50;1.50;;;21.00;99.90;;;;;;5069550;28;20470;-81
2022/06/13 05:17:07;;;;;;;2.13;1.30;;;20.60;99.90;;;;;;5063985;28;20458;-80
2022/06/13 05:19:48;;;;;;;2.10;1.60;;;21.10;99.90;;;;;;5065636;28;20453;-81
2022/06/13 05:22:34;;;;;;;3.43;1.93;;;21.00;99.90;;;;;;5069814;28;20864;-81
2022/06/13 05:25:22;;;;;;;2.40;1.40;;;21.00;99.90;;;;;;5069537;28;20479;-81
2022/06/13 05:27:50;;;;;;;2.77;1.40;;;21.00;99.90;;;;;;5062718;28;20435;-82
2022/06/13 05:30:19;;;;;;;2.00;1.63;;;21.00;99.90;;;;;;5066108;28;20458;-81
2022/06/13 05:32:48;;;;;;;3.27;1.87;;;21.10;99.90;;;;;;5069368;28;20468;-81
2022/06/13 05:35:20;;;;;;;4.63;1.50;;;21.10;99.90;;;;;;5062535;28;20479;-81
2022/06/13 05:37:50;;;;;;;3.30;1.43;;;21.10;99.90;;;;;;5061726;28;20706;-81
2022/06/13 05:40:22;;;;;;;4.60;1.50;;;21.10;99.90;;;;;;5066489;28;20797;-81
2022/06/13 05:42:52;;;;;;;3.17;1.67;;;21.10;99.90;;;;;;5069547;28;20449;-81
2022/06/13 05:45:22;;;;;;;2.30;1.60;;;21.10;99.90;;;;;;5061468;28;20479;-81
2022/06/13 05:47:53;;;;;;;2.83;1.70;;;21.10;99.90;;;;;;5061687;28;20452;-81
2022/06/13 05:50:23;;;;;;;4.43;1.77;;;21.10;99.90;;;;;;5064438;28;20466;-81
2022/06/13 05:52:53;;;;;;;5.13;1.83;;;21.00;99.90;;;;;;5067543;28;20471;-81
2022/06/13 05:55:22;;;;;;;2.77;1.67;;;21.00;99.90;;;;;;5067388;28;20478;-81
2022/06/13 05:58:00;;;;;;;1.90;1.20;;;21.10;99.90;;;;;;5069332;28;20452;-81
2022/06/13 06:00:34;;;;;;;2.97;1.40;;;21.10;99.90;;;;;;5056866;28;20561;-81
2022/06/13 06:03:02;;;;;;;2.90;1.40;;;21.10;99.90;;;;;;5063380;28;20466;-81
2022/06/13 06:05:31;;;;;;;4.47;1.70;;;21.20;99.90;;;;;;5068303;28;20467;-81
2022/06/13 06:07:59;;;;;;;3.60;2.07;;;21.10;99.90;;;;;;5063800;28;20534;-81
2022/06/13 06:10:33;;;;;;;2.50;1.60;;;21.20;99.90;;;;;;5061676;28;20540;-81
2022/06/13 06:13:01;;;;;;;2.10;1.47;;;21.20;99.90;;;;;;5068988;28;20485;-81
2022/06/13 06:15:29;;;;;;;2.10;1.80;;;21.10;99.90;;;;;;5066880;28;21095;-81
2022/06/13 06:17:58;;;;;;;4.50;1.43;;;21.10;99.90;;;;;;5064456;28;21103;-80
2022/06/13 06:20:26;;;;;;;3.53;1.37;;;21.10;99.90;;;;;;5063047;28;20450;-81
2022/06/13 06:22:54;;;;;;;1.70;1.40;;;21.20;99.90;;;;;;5068418;28;20495;-81
2022/06/13 06:25:22;;;;;;;2.00;1.30;;;21.20;99.90;;;;;;5067545;28;20458;-81
2022/06/13 06:27:52;;;;;;;5.50;1.60;;;21.20;99.90;;;;;;5068969;28;20462;-82
2022/06/13 06:30:20;;;;;;;3.27;1.40;;;21.20;99.90;;;;;;5063277;28;20455;-81
2022/06/13 06:32:55;;;;;;;2.10;1.30;;;21.20;99.90;;;;;;5062292;28;20566;-81
2022/06/13 06:35:24;;;;;;;3.43;1.93;;;21.20;99.90;;;;;;5062554;28;20470;-81
2022/06/13 06:37:54;;;;;;;2.67;1.60;;;21.20;99.90;;;;;;5062259;28;20452;-80
2022/06/13 06:40:25;;;;;;;3.60;1.67;;;21.30;99.90;;;;;;5068781;28;20458;-81
2022/06/13 06:42:55;;;;;;;2.53;2.10;;;21.30;99.90;;;;;;5068240;28;21094;-81
2022/06/13 06:45:25;;;;;;;3.60;1.60;;;21.40;99.90;;;;;;5067678;28;20474;-81
2022/06/13 06:47:54;;;;;;;3.40;1.40;;;21.40;99.90;;;;;;5066764;28;20459;-80
2022/06/13 06:50:25;;;;;;;3.53;1.30;;;21.40;99.90;;;;;;5089465;28;20503;-81
2022/06/13 06:52:54;;;;;;;3.30;1.40;;;21.40;99.90;;;;;;5063257;28;20490;-80
2022/06/13 07:01:00;;;;;;;3.97;1.43;;;21.50;99.90;;;;;;5058302;28;20450;-81
2022/06/13 07:03:29;;;;;;;2.23;1.47;;;21.60;99.90;;;;;;5064002;28;20552;-81
2022/06/13 07:05:57;;;;;;;5.27;2.27;;;21.80;99.90;;;;;;5061263;28;20541;-80
2022/06/13 07:08:27;;;;;;;2.37;1.10;;;21.80;99.90;;;;;;5070852;28;20513;-81
2022/06/13 07:11:53;;;;;;;4.80;1.67;;;21.80;99.90;;;;;;5064027;28;21192;-81
2022/06/13 07:13:45;;;;;;;3.07;1.67;;;21.80;99.90;;;;;;5071857;28;20501;-81
2022/06/13 07:16:13;;;;;;;4.40;1.40;;;21.90;99.90;;;;;;5070123;28;20464;-80
2022/06/13 07:18:45;;;;;;;4.67;1.50;;;21.90;99.90;;;;;;5068954;28;20915;-80
2022/06/13 07:21:14;;;;;;;4.20;1.50;;;22.00;99.90;;;;;;5062870;28;20523;-81
2022/06/13 07:23:42;;;;;;;5.23;1.60;;;22.00;99.90;;;;;;5070132;28;20482;-81
2022/06/13 07:26:11;;;;;;;2.63;1.50;;;22.00;99.90;;;;;;5060712;28;20457;-82
2022/06/13 07:28:39;;;;;;;1.27;1.10;;;22.10;99.90;;;;;;5070491;28;20461;-81
2022/06/13 07:31:17;;;;;;;2.60;1.40;;;22.20;99.90;;;;;;5066680;28;20465;-81
2022/06/13 07:33:47;;;;;;;2.87;1.40;;;22.20;99.90;;;;;;5065412;28;20473;-81
2022/06/13 07:36:16;;;;;;;3.70;1.90;;;22.20;99.90;;;;;;5071196;28;20454;-81
2022/06/13 07:38:45;;;;;;;2.30;1.40;;;22.20;99.90;;;;;;5071650;28;20851;-81
2022/06/13 07:41:18;;;;;;;2.63;1.50;;;22.30;99.90;;;;;;5071877;28;20450;-81
2022/06/13 07:43:47;;;;;;;2.93;1.17;;;22.30;99.90;;;;;;5065222;28;20482;-81
2022/06/13 07:46:16;;;;;;;1.80;1.20;;;22.30;99.90;;;;;;5070500;28;20501;-81
2022/06/13 07:48:47;;;;;;;3.77;1.30;;;22.30;99.90;;;;;;5071759;28;20456;-81
2022/06/13 07:51:16;;;;;;;2.27;1.40;;;22.40;99.90;;;;;;5071805;28;20455;-81
2022/06/13 07:53:45;;;;;;;3.60;1.57;;;22.40;99.90;;;;;;5071031;28;20508;-81
2022/06/13 07:56:28;;;;;;;5.80;1.80;;;22.40;99.90;;;;;;5066135;28;20821;-81
2022/06/13 07:58:56;;;;;;;1.60;1.47;;;22.50;99.90;;;;;;5071506;28;20469;-81
2022/06/13 08:01:27;;;;;;;2.63;1.50;;;22.50;99.90;;;;;;5069557;28;20460;-81
2022/06/13 08:03:56;;;;;;;3.30;1.23;;;22.50;99.90;;;;;;5071366;28;20481;-81
2022/06/13 08:06:26;;;;;;;4.10;1.30;;;22.60;99.90;;;;;;5102565;28;20533;-81
2022/06/13 08:08:55;;;;;;;1.77;1.30;;;22.60;99.90;;;;;;5071361;28;20457;-81
2022/06/13 08:11:30;;;;;;;2.23;1.30;;;22.70;99.90;;;;;;5069551;28;20446;-81
2022/06/13 08:13:58;;;;;;;1.73;1.20;;;22.70;99.90;;;;;;5071470;28;20481;-81
2022/06/13 08:16:28;;;;;;;1.90;1.07;;;22.70;99.90;;;;;;5061969;28;20458;-81
2022/06/13 08:18:57;;;;;;;1.97;1.47;;;22.70;99.90;;;;;;5066375;28;20542;-81
2022/06/13 08:21:25;;;;;;;5.97;1.50;;;22.80;99.90;;;;;;5070758;28;20532;-81
2022/06/13 08:23:53;;;;;;;1.80;1.10;;;22.70;99.90;;;;;;5070541;28;20557;-81
2022/06/13 08:26:21;;;;;;;2.23;1.17;;;22.70;99.90;;;;;;5069577;28;20465;-82
2022/06/13 08:28:50;;;;;;;3.03;1.60;;;22.80;99.90;;;;;;5070844;28;20535;-82
2022/06/13 08:31:21;;;;;;;2.00;1.13;;;22.90;99.90;;;;;;5070652;28;20477;-81
2022/06/13 08:33:51;;;;;;;2.20;1.77;;;23.00;99.90;;;;;;5070416;28;21000;-81
2022/06/13 08:36:21;;;;;;;1.73;1.20;;;23.00;99.90;;;;;;5055100;28;20458;-81
2022/06/13 08:38:49;;;;;;;3.00;1.47;;;23.00;99.90;;;;;;5070872;28;20462;-81
2022/06/13 08:41:25;;;;;;;2.00;1.47;;;23.10;99.90;;;;;;5070273;28;20457;-82
2022/06/13 08:44:12;;;;;;;6.30;1.50;;;23.00;99.90;;;;;;5070534;28;20489;-80
2022/06/13 08:46:51;;;;;;;4.17;1.43;;;23.00;99.90;;;;;;5070037;28;20450;-81
2022/06/13 08:49:32;;;;;;;1.90;1.70;;;23.10;99.90;;;;;;5058798;28;20523;-81
2022/06/13 08:52:12;;;;;;;7.47;2.00;;;23.10;99.90;;;;;;5064897;28;20470;-81
2022/06/13 08:54:43;;;;;;;3.83;1.57;;;23.10;99.90;;;;;;5069473;28;20555;-82
2022/06/13 08:57:12;;;;;;;3.47;1.80;;;23.20;99.90;;;;;;5069391;28;20458;-81
2022/06/13 08:59:45;;;;;;;2.80;1.57;;;23.30;99.90;;;;;;5070391;28;20451;-81
2022/06/13 09:02:19;;;;;;;2.80;1.40;;;23.20;99.90;;;;;;5070331;28;20458;-82
2022/06/13 09:04:52;;;;;;;1.83;1.40;;;23.20;99.90;;;;;;5069369;28;20466;-81
2022/06/13 09:07:27;;;;;;;2.90;1.37;;;23.20;99.90;;;;;;5057214;28;20545;-81
2022/06/13 09:10:00;;;;;;;4.20;1.40;;;23.20;99.90;;;;;;5069706;28;20549;-81
2022/06/13 09:12:37;;;;;;;2.13;1.57;;;23.20;99.90;;;;;;5069896;28;20467;-81
2022/06/13 09:15:10;;;;;;;2.17;1.63;;;23.30;99.90;;;;;;5066508;28;20515;-82
2022/06/13 09:17:47;;;;;;;2.30;1.37;;;23.30;99.90;;;;;;5064389;28;20491;-81
2022/06/13 09:20:21;;;;;;;6.23;1.30;;;23.40;99.90;;;;;;5065414;28;20465;-81
2022/06/13 09:22:55;;;;;;;1.80;1.30;;;23.40;99.90;;;;;;5069613;28;20451;-81
2022/06/13 09:25:36;;;;;;;1.20;1.10;;;23.40;99.90;;;;;;5067833;28;20918;-81
2022/06/13 09:28:13;;;;;;;2.13;1.33;;;23.40;99.90;;;;;;5069687;28;20485;-80
2022/06/13 09:30:47;;;;;;;2.83;1.30;;;23.30;99.90;;;;;;5069594;28;20494;-80
2022/06/13 09:33:22;;;;;;;3.70;1.87;;;23.40;99.90;;;;;;5068179;28;20454;-80
2022/06/13 09:35:57;;;;;;;2.57;1.50;;;23.40;99.90;;;;;;5068371;28;20600;-80
2022/06/13 09:38:29;;;;;;;1.70;1.30;;;23.50;99.90;;;;;;5069390;28;20545;-81
2022/06/13 09:41:14;;;;;;;1.73;1.20;;;23.50;99.90;;;;;;5069088;28;20489;-81
2022/06/13 09:43:53;;;;;;;2.60;1.00;;;23.50;99.90;;;;;;5063310;28;20451;-81
2022/06/13 09:46:34;;;;;;;1.20;1.10;;;23.50;99.90;;;;;;5068398;28;20454;-81
2022/06/13 09:49:14;;;;;;;1.90;1.20;;;23.60;99.90;;;;;;5068987;28;20969;-81
2022/06/13 09:51:57;;;;;;;1.67;1.10;;;23.60;99.90;;;;;;5069614;28;20508;-81
2022/06/13 09:54:37;;;;;;;3.93;1.13;;;23.60;99.90;;;;;;5068872;28;20482;-81
2022/06/13 09:57:15;;;;;;;1.53;1.10;;;23.60;99.90;;;;;;5068359;28;21037;-81
2022/06/13 10:00:00;;;;;;;2.03;1.10;;;23.60;99.90;;;;;;5062298;28;20470;-81
2022/06/13 10:02:39;;;;;;;2.93;1.90;;;23.70;99.90;;;;;;5057342;28;20511;-80
2022/06/13 10:05:22;;;;;;;1.60;1.40;;;23.80;99.90;;;;;;5067427;28;20477;-80
2022/06/13 10:08:01;;;;;;;1.47;0.90;;;23.80;99.90;;;;;;5067699;28;20468;-80
2022/06/13 10:10:37;;;;;;;1.57;1.20;;;23.90;99.90;;;;;;5069070;28;20458;-80
2022/06/13 10:13:17;;;;;;;1.27;1.00;;;23.90;99.90;;;;;;5067284;28;20454;-80
2022/06/13 10:15:55;;;;;;;1.90;1.10;;;23.90;99.90;;;;;;5067582;28;20509;-81
2022/06/13 10:18:34;;;;;;;1.40;1.30;;;24.00;99.90;;;;;;5068820;28;20476;-80
2022/06/13 10:21:15;;;;;;;1.37;1.13;;;24.00;99.90;;;;;;5069303;28;20462;-81
2022/06/13 10:23:53;;;;;;;3.43;1.23;;;24.00;99.90;;;;;;5069244;28;20462;-81
2022/06/13 10:26:29;;;;;;;1.23;1.03;;;24.10;99.90;;;;;;5067791;28;20442;-81
2022/06/13 10:29:22;;;;;;;2.20;1.20;;;24.00;99.90;;;;;;5068860;28;20457;-81
2022/06/13 10:32:06;;;;;;;3.73;1.27;;;24.10;99.90;;;;;;5068440;28;20462;-81
2022/06/13 10:34:50;;;;;;;1.53;1.10;;;24.10;99.90;;;;;;5058003;28;21001;-81
2022/06/13 10:37:27;;;;;;;1.30;1.10;;;24.10;99.90;;;;;;5058080;28;20601;-81
2022/06/13 10:40:01;;;;;;;2.60;1.10;;;24.10;99.90;;;;;;5067905;28;20977;-81
2022/06/13 10:42:32;;;;;;;1.90;1.20;;;24.10;99.90;;;;;;5068178;28;20466;-81
2022/06/13 10:45:03;;;;;;;1.27;0.90;;;24.10;99.90;;;;;;5067841;28;20467;-80
2022/06/13 10:47:39;;;;;;;1.47;1.10;;;24.10;99.90;;;;;;5068419;28;21035;-81
2022/06/13 10:50:11;;;;;;;1.87;0.90;;;24.20;99.90;;;;;;5067421;28;20520;-81
2022/06/13 10:52:45;;;;;;;1.53;1.20;;;24.30;99.90;;;;;;5062522;28;20439;-81
2022/06/13 10:55:22;;;;;;;1.20;0.83;;;24.30;99.90;;;;;;5067346;28;20482;-81
2022/06/13 10:57:53;;;;;;;3.30;1.10;;;24.40;99.90;;;;;;5068637;28;20462;-80
2022/06/13 11:00:25;;;;;;;2.30;1.00;;;24.40;99.90;;;;;;5069122;28;20466;-82
2022/06/13 11:03:11;;;;;;;1.20;1.10;;;24.50;99.90;;;;;;5068337;28;20458;-80
2022/06/13 11:05:53;;;;;;;1.30;1.20;;;24.40;99.90;;;;;;5067719;28;20489;-80
2022/06/13 11:08:23;;;;;;;1.80;1.07;;;24.50;99.90;;;;;;5060131;28;20973;-81
2022/06/13 11:11:03;;;;;;;3.43;1.00;;;24.50;99.90;;;;;;5068197;28;20533;-81
2022/06/13 11:13:37;;;;;;;2.20;1.13;;;24.50;99.90;;;;;;5069095;28;20532;-80
2022/06/13 11:24:52;;;;;;;1.17;1.07;;;24.60;99.90;;;;;;5060973;28;20507;-80
2022/06/13 11:27:42;;;;;;;1.30;1.20;;;24.70;99.90;;;;;;5065690;28;20450;-81
2022/06/13 11:30:37;;;;;;;1.57;1.40;;;24.70;99.90;;;;;;5069005;28;20465;-81
2022/06/13 11:33:09;;;;;;;2.23;0.80;;;24.70;99.90;;;;;;5068432;28;20458;-81
2022/06/13 11:35:39;;;;;;;1.20;1.10;;;24.80;99.90;;;;;;5066706;28;20474;-81
2022/06/13 11:38:22;;;;;;;2.67;1.00;;;24.80;99.90;;;;;;5068287;28;21110;-81
2022/06/13 11:41:07;;;;;;;2.47;1.10;;;24.80;99.90;;;;;;5068471;28;20465;-80
2022/06/13 11:43:44;;;;;;;1.50;1.00;;;24.80;99.90;;;;;;5066780;28;20817;-81
2022/06/13 11:46:31;;;;;;;1.20;0.90;;;24.80;99.90;;;;;;5067593;28;20447;-82
2022/06/13 11:49:05;;;;;;;1.50;1.10;;;24.90;99.90;;;;;;5068852;28;20446;-81
2022/06/13 11:51:41;;;;;;;1.23;1.13;;;25.00;99.90;;;;;;5069828;28;20454;-81
2022/06/13 11:54:22;;;;;;;1.03;1.00;;;25.00;99.90;;;;;;5070014;28;20931;-81
2022/06/13 11:56:50;;;;;;;3.23;1.17;;;25.00;99.90;;;;;;5072199;28;20478;-80
2022/06/13 11:59:20;;;;;;;1.20;0.90;;;25.00;99.90;;;;;;5069452;28;20532;-80
2022/06/13 12:01:57;;;;;;;2.83;1.27;;;25.00;99.90;;;;;;5072389;28;20455;-81
2022/06/13 12:04:26;;;;;;;3.03;1.13;;;25.00;99.90;;;;;;5072295;28;20520;-80
2022/06/13 12:06:59;;;;;;;1.40;0.90;;;25.00;99.90;;;;;;5071183;28;20486;-80
2022/06/13 12:09:32;;;;;;;1.47;0.90;;;25.00;99.90;;;;;;5058547;28;20458;-81
2022/06/13 12:12:04;;;;;;;1.03;0.90;;;25.00;99.90;;;;;;5069678;28;20859;-81
2022/06/13 12:14:37;;;;;;;1.30;1.10;;;25.00;99.90;;;;;;5070643;28;20466;-81
2022/06/13 12:17:10;;;;;;;1.10;1.00;;;25.00;99.90;;;;;;5067282;28;20505;-81
2022/06/13 12:19:44;;;;;;;1.10;1.00;;;25.10;99.90;;;;;;5071558;28;20458;-81
2022/06/13 12:22:19;;;;;;;1.47;1.17;;;25.10;99.90;;;;;;5073284;28;20447;-81
2022/06/13 12:24:58;;;;;;;3.43;1.17;;;25.00;99.90;;;;;;5070742;28;20478;-81
2022/06/13 12:27:39;;;;;;;2.17;1.10;;;25.00;99.90;;;;;;5070946;28;20462;-81
2022/06/13 12:30:45;;;;;;;1.30;1.13;;;25.00;99.90;;;;;;5071099;28;20868;-80
2022/06/13 12:33:28;;;;;;;1.47;1.37;;;25.00;99.90;;;;;;5057223;28;20989;-81
2022/06/13 12:36:12;;;;;;;2.00;1.03;;;25.00;99.90;;;;;;5062837;28;20489;-80
2022/06/13 12:39:12;;;;;;;0.93;0.90;;;25.10;99.90;;;;;;5070236;28;20511;-80
2022/06/13 12:41:48;;;;;;;1.20;1.10;;;25.10;99.90;;;;;;5070528;28;20508;-81
2022/06/13 12:44:38;;;;;;;1.30;1.10;;;25.20;99.90;;;;;;5070033;28;20462;-81
2022/06/13 12:47:34;;;;;;;1.40;1.13;;;25.20;99.90;;;;;;5069540;28;20454;-81
2022/06/13 12:50:33;;;;;;;1.10;0.93;;;25.20;99.90;;;;;;5064024;28;20458;-80
2022/06/13 12:53:23;;;;;;;1.43;0.90;;;25.20;99.90;;;;;;5070459;28;20489;-81
2022/06/13 12:55:56;;;;;;;1.33;1.07;;;25.20;99.90;;;;;;5062480;28;20467;-80
2022/06/13 12:58:37;;;;;;;4.20;0.90;;;25.20;99.90;;;;;;5070364;28;20508;-81
2022/06/13 13:01:12;;;;;;;1.30;1.13;;;25.20;99.90;;;;;;5070373;28;20454;-81
2022/06/13 13:03:59;;;;;;;1.17;1.07;;;25.10;99.90;;;;;;5069929;28;21082;-81
2022/06/13 13:06:38;;;;;;;2.30;0.87;;;25.00;99.90;;;;;;5053791;28;20482;-80
2022/06/13 13:09:23;;;;;;;2.57;1.03;;;25.10;99.90;;;;;;5067659;28;20537;-81
2022/06/13 13:12:04;;;;;;;0.97;0.93;;;25.20;99.90;;;;;;5070045;28;20443;-81
2022/06/13 13:14:43;;;;;;;1.13;1.10;;;25.20;99.90;;;;;;5069480;28;20486;-81
2022/06/13 13:17:21;;;;;;;1.40;1.30;;;25.30;99.90;;;;;;5067732;28;20482;-81
2022/06/13 13:19:59;;;;;;;1.20;0.80;;;25.30;99.90;;;;;;5070339;28;20450;-81
2022/06/13 13:22:35;;;;;;;1.10;1.00;;;25.40;99.90;;;;;;5069961;28;20457;-81
2022/06/13 13:25:31;;;;;;;0.97;0.83;;;25.40;99.90;;;;;;5068508;28;20568;-81
2022/06/13 13:28:10;;;;;;;1.53;0.90;;;25.50;99.90;;;;;;5069657;28;20550;-80
2022/06/13 13:30:44;;;;;;;1.30;0.87;;;25.20;99.90;;;;;;5069781;28;20454;-81
2022/06/13 13:33:32;;;;;;;1.10;0.80;;;25.50;99.90;;;;;;5068716;28;20476;-81
2022/06/13 13:36:08;;;;;;;1.00;0.80;;;25.50;99.90;;;;;;5055242;28;20480;-82
2022/06/13 13:38:41;;;;;;;0.80;0.80;;;25.50;99.90;;;;;;5069669;28;20454;-80
2022/06/13 13:41:15;;;;;;;1.53;0.80;;;25.50;99.90;;;;;;5069068;28;20459;-81
2022/06/13 13:43:53;;;;;;;3.27;1.00;;;25.50;99.90;;;;;;5056704;28;20568;-80